createdAt,value
2019-01-18T00:00:44.307Z,3.67
2019-01-18T00:01:44.335Z,3.56
2019-01-18T00:02:44.362Z,3.64
2019-01-18T00:03:44.391Z,3.63
2019-01-18T00:04:44.421Z,3.56
2019-01-18T00:05:44.447Z,3.59
2019-01-18T00:06:44.476Z,3.59
2019-01-18T00:07:44.501Z,3.62
2019-01-18T00:08:44.530Z,3.46
2019-01-18T00:09:44.556Z,3.41
2019-01-18T00:10:44.587Z,3.45
2019-01-18T00:11:44.614Z,3.41
2019-01-18T00:12:44.643Z,3.34
2019-01-18T00:13:44.669Z,3.31
2019-01-18T00:14:44.696Z,3.30
2019-01-18T00:15:44.725Z,3.28
2019-01-18T00:16:44.755Z,3.20
2019-01-18T00:17:44.781Z,3.19
2019-01-18T00:18:44.809Z,3.05
2019-01-18T00:19:44.835Z,3.13
2019-01-18T00:20:44.865Z,3.12
2019-01-18T00:21:44.891Z,3.15
2019-01-18T00:22:44.919Z,3.10
2019-01-18T00:23:44.947Z,3.15
2019-01-18T00:24:44.975Z,3.08
2019-01-18T00:25:45.001Z,3.22
2019-01-18T00:26:45.030Z,3.19
2019-01-18T00:27:45.058Z,3.17
2019-01-18T00:28:45.086Z,3.25
2019-01-18T00:29:45.113Z,3.13
2019-01-18T00:30:45.141Z,3.08
2019-01-18T00:31:45.169Z,3.10
2019-01-18T00:32:45.195Z,3.15
2019-01-18T00:33:45.223Z,3.07
2019-01-18T00:34:45.252Z,3.04
2019-01-18T00:35:45.279Z,3.04
2019-01-18T00:36:45.307Z,3.15
2019-01-18T00:37:45.333Z,3.01
2019-01-18T00:38:45.361Z,2.99
2019-01-18T00:39:45.390Z,2.99
2019-01-18T00:40:45.416Z,2.98
2019-01-18T00:41:45.444Z,3.01
2019-01-18T00:42:45.472Z,2.90
2019-01-18T00:43:45.499Z,2.92
2019-01-18T00:44:45.529Z,2.89
2019-01-18T00:45:45.557Z,2.87
2019-01-18T00:46:45.581Z,3.01
2019-01-18T00:47:45.608Z,2.90
2019-01-18T00:48:45.638Z,2.97
2019-01-18T00:49:45.666Z,2.89
2019-01-18T00:50:45.692Z,2.90
2019-01-18T00:51:45.719Z,2.99
2019-01-18T00:52:45.747Z,2.95
2019-01-18T00:53:45.774Z,3.01
2019-01-18T00:54:45.801Z,3.02
2019-01-18T00:55:45.829Z,2.99
2019-01-18T00:56:45.858Z,3.04
2019-01-18T00:57:45.885Z,3.08
2019-01-18T00:58:45.911Z,3.13
2019-01-18T00:59:45.940Z,3.04
2019-01-18T01:00:45.966Z,3.17
2019-01-18T01:01:45.993Z,3.19
2019-01-18T01:02:46.021Z,3.16
2019-01-18T01:03:46.052Z,3.13
2019-01-18T01:04:46.077Z,3.12
2019-01-18T01:05:46.105Z,3.12
2019-01-18T01:06:46.131Z,3.07
2019-01-18T01:07:46.161Z,3.10
2019-01-18T01:08:46.188Z,3.20
2019-01-18T01:09:46.214Z,3.20
2019-01-18T01:10:46.247Z,3.17
2019-01-18T01:11:46.269Z,3.31
2019-01-18T01:12:46.298Z,3.28
2019-01-18T01:13:46.326Z,3.30
2019-01-18T01:14:46.351Z,3.31
2019-01-18T01:15:46.381Z,3.30
2019-01-18T01:16:46.410Z,3.26
2019-01-18T01:17:46.434Z,3.31
2019-01-18T01:18:46.462Z,3.44
2019-01-18T01:19:46.491Z,3.39
2019-01-18T01:20:46.517Z,3.45
2019-01-18T01:21:46.551Z,3.31
2019-01-18T01:22:46.573Z,3.39
2019-01-18T01:23:46.601Z,3.50
2019-01-18T01:24:46.629Z,3.49
2019-01-18T01:25:46.655Z,3.46
2019-01-18T01:26:46.683Z,3.46
2019-01-18T01:27:46.710Z,3.37
2019-01-18T01:28:46.740Z,3.45
2019-01-18T01:29:46.766Z,3.53
2019-01-18T01:30:46.796Z,3.42
2019-01-18T01:31:46.823Z,3.50
2019-01-18T01:32:46.853Z,3.57
2019-01-18T01:33:46.878Z,3.59
2019-01-18T01:34:46.906Z,3.59
2019-01-18T01:35:46.934Z,3.59
2019-01-18T01:36:46.966Z,3.41
2019-01-18T01:37:46.987Z,3.37
2019-01-18T01:38:47.018Z,3.50
2019-01-18T01:39:47.045Z,3.41
2019-01-18T01:40:47.072Z,3.42
2019-01-18T01:41:47.099Z,3.31
2019-01-18T01:42:47.127Z,3.39
2019-01-18T01:43:47.156Z,3.42
2019-01-18T01:44:47.185Z,3.28
2019-01-18T01:45:47.212Z,3.31
2019-01-18T01:46:47.242Z,3.41
2019-01-18T01:47:47.266Z,3.41
2019-01-18T01:48:47.298Z,3.44
2019-01-18T01:49:47.322Z,3.39
2019-01-18T01:50:47.350Z,3.42
2019-01-18T01:51:47.378Z,3.31
2019-01-18T01:52:47.407Z,3.26
2019-01-18T01:53:47.437Z,3.33
2019-01-18T01:54:47.461Z,3.30
2019-01-18T01:55:47.490Z,3.33
2019-01-18T01:56:47.517Z,3.30
2019-01-18T01:57:47.544Z,3.23
2019-01-18T01:58:47.571Z,3.26
2019-01-18T01:59:49.948Z,3.30
2019-01-18T02:00:47.629Z,3.37
2019-01-18T02:01:47.654Z,3.28
2019-01-18T02:02:47.683Z,3.31
2019-01-18T02:03:47.712Z,3.28
2019-01-18T02:04:47.739Z,3.19
2019-01-18T02:05:47.770Z,3.23
2019-01-18T02:06:47.798Z,3.12
2019-01-18T02:07:47.822Z,3.13
2019-01-18T02:08:47.850Z,3.08
2019-01-18T02:09:47.878Z,3.07
2019-01-18T02:10:47.907Z,3.08
2019-01-18T02:11:47.933Z,3.05
2019-01-18T02:12:47.961Z,2.99
2019-01-18T02:13:47.989Z,3.07
2019-01-18T02:14:48.016Z,2.97
2019-01-18T02:15:48.044Z,3.15
2019-01-18T02:16:48.072Z,3.07
2019-01-18T02:17:48.100Z,3.07
2019-01-18T02:18:48.127Z,3.05
2019-01-18T02:19:48.156Z,3.10
2019-01-18T02:20:48.183Z,3.05
2019-01-18T02:21:48.212Z,3.07
2019-01-18T02:22:48.240Z,3.12
2019-01-18T02:23:48.286Z,3.13
2019-01-18T02:24:48.295Z,3.13
2019-01-18T02:25:48.322Z,3.04
2019-01-18T02:26:48.348Z,3.12
2019-01-18T02:27:48.376Z,3.07
2019-01-18T02:28:48.406Z,3.12
2019-01-18T02:29:48.434Z,3.20
2019-01-18T02:30:48.459Z,3.05
2019-01-18T02:31:48.489Z,3.07
2019-01-18T02:32:48.517Z,3.10
2019-01-18T02:33:48.543Z,3.20
2019-01-18T02:34:48.581Z,3.23
2019-01-18T02:35:48.599Z,3.10
2019-01-18T02:36:48.629Z,3.08
2019-01-18T02:37:48.654Z,3.08
2019-01-18T02:38:48.684Z,3.12
2019-01-18T02:39:48.710Z,3.10
2019-01-18T02:40:48.738Z,3.05
2019-01-18T02:41:48.765Z,3.07
2019-01-18T02:42:48.795Z,3.02
2019-01-18T02:43:48.822Z,3.04
2019-01-18T02:44:48.851Z,2.99
2019-01-18T02:45:48.876Z,2.95
2019-01-18T02:46:48.904Z,3.04
2019-01-18T02:47:48.933Z,3.07
2019-01-18T02:48:48.965Z,3.04
2019-01-18T02:51:32.194Z,3.04
2019-01-18T02:52:31.748Z,3.05
2019-01-18T02:54:35.772Z,3.04
2019-01-18T02:55:35.797Z,3.07
2019-01-18T02:57:39.821Z,3.08
2019-01-18T02:58:39.845Z,3.05
2019-01-18T03:00:43.867Z,3.02
2019-01-18T03:01:43.895Z,2.99
2019-01-18T03:03:36.837Z,3.01
2019-01-18T03:04:36.860Z,2.90
2019-01-18T03:06:40.883Z,2.90
2019-01-18T03:07:40.908Z,2.89
2019-01-18T03:09:44.992Z,2.90
2019-01-18T03:10:44.958Z,2.94
2019-01-18T03:12:48.990Z,2.95
2019-01-18T03:13:49.019Z,2.99
2019-01-18T03:15:53.094Z,2.95
2019-01-18T03:16:53.049Z,2.87
2019-01-18T03:18:57.071Z,2.84
2019-01-18T03:19:57.093Z,2.86
2019-01-18T03:22:01.154Z,2.76
2019-01-18T03:23:01.138Z,2.65
2019-01-18T03:25:05.164Z,2.76
2019-01-18T03:26:05.188Z,2.69
2019-01-18T03:28:09.209Z,2.77
2019-01-18T03:29:09.233Z,2.68
2019-01-18T03:31:13.270Z,2.68
2019-01-18T03:32:13.291Z,2.66
2019-01-18T03:34:17.324Z,2.65
2019-01-18T03:35:17.356Z,2.66
2019-01-18T03:37:21.386Z,2.65
2019-01-18T03:38:21.439Z,2.63
2019-01-18T03:40:25.415Z,2.69
2019-01-18T03:41:25.463Z,2.63
2019-01-18T03:43:18.381Z,2.65
2019-01-18T03:44:18.400Z,2.65
2019-01-18T03:46:22.425Z,2.71
2019-01-18T03:47:22.448Z,2.65
2019-01-18T03:49:26.469Z,2.63
2019-01-18T03:50:26.492Z,2.65
2019-01-18T03:52:30.517Z,2.62
2019-01-18T03:53:30.544Z,2.65
2019-01-18T03:55:34.562Z,2.65
2019-01-18T03:56:34.584Z,2.69
2019-01-18T03:58:38.610Z,2.65
2019-01-18T03:59:38.631Z,2.66
2019-01-18T04:01:42.655Z,2.65
2019-01-18T04:02:42.678Z,2.63
2019-01-18T04:04:46.700Z,2.74
2019-01-18T04:05:46.722Z,2.66
2019-01-18T04:07:50.763Z,2.69
2019-01-18T04:08:50.769Z,2.66
2019-01-18T04:10:54.790Z,2.66
2019-01-18T04:11:54.816Z,2.62
2019-01-18T04:13:47.755Z,2.63
2019-01-18T04:14:47.779Z,2.68
2019-01-18T04:16:51.800Z,2.63
2019-01-18T04:17:51.823Z,2.68
2019-01-18T04:19:55.845Z,2.66
2019-01-18T04:20:55.870Z,2.65
2019-01-18T04:22:59.891Z,2.68
2019-01-18T04:23:59.912Z,2.73
2019-01-18T04:26:03.936Z,2.62
2019-01-18T04:27:03.957Z,2.68
2019-01-18T04:29:07.976Z,2.69
2019-01-18T04:30:08.002Z,2.74
2019-01-18T04:32:12.028Z,2.65
2019-01-18T04:33:12.047Z,2.76
2019-01-18T04:35:16.091Z,2.65
2019-01-18T04:36:16.101Z,2.74
2019-01-18T04:38:20.116Z,2.69
2019-01-18T04:39:20.142Z,2.68
2019-01-18T04:41:24.163Z,2.63
2019-01-18T04:42:24.187Z,2.66
2019-01-18T04:44:28.208Z,2.71
2019-01-18T04:45:28.233Z,2.69
2019-01-18T04:47:32.254Z,2.65
2019-01-18T04:48:32.277Z,2.74
2019-01-18T04:50:36.311Z,2.68
2019-01-18T04:51:36.336Z,2.71
2019-01-18T04:53:29.277Z,2.69
2019-01-18T04:54:29.298Z,2.71
2019-01-18T04:56:33.665Z,2.65
2019-01-18T04:57:33.341Z,2.73
2019-01-18T04:59:37.360Z,2.66
2019-01-18T05:00:40.994Z,2.80
2019-01-18T05:02:41.426Z,2.71
2019-01-18T05:03:41.439Z,2.69
2019-01-18T05:05:45.454Z,2.62
2019-01-18T05:06:45.561Z,2.65
2019-01-18T05:08:49.501Z,2.71
2019-01-18T05:09:49.526Z,2.73
2019-01-18T05:11:53.549Z,2.66
2019-01-18T05:12:53.571Z,2.61
2019-01-18T05:14:57.590Z,2.66
2019-01-18T05:15:57.615Z,2.68
2019-01-18T05:18:01.666Z,2.62
2019-01-18T05:19:01.661Z,2.65
2019-01-18T05:21:05.682Z,2.68
2019-01-18T05:22:05.709Z,2.62
2019-01-18T05:24:09.797Z,2.63
2019-01-18T05:25:09.756Z,2.69
2019-01-18T05:27:13.774Z,2.59
2019-01-18T05:28:13.803Z,2.59
2019-01-18T05:30:17.839Z,2.59
2019-01-18T05:31:17.844Z,2.63
2019-01-18T05:33:10.801Z,2.63
2019-01-18T05:34:10.825Z,2.65
2019-01-18T05:36:14.849Z,2.68
2019-01-18T05:37:14.873Z,2.66
2019-01-18T05:39:18.895Z,2.62
2019-01-18T05:40:18.918Z,2.68
2019-01-18T05:42:22.940Z,2.68
2019-01-18T05:43:22.963Z,2.65
2019-01-18T05:45:27.095Z,2.66
2019-01-18T05:46:27.009Z,2.63
2019-01-18T05:48:31.043Z,2.65
2019-01-18T05:49:31.065Z,2.71
2019-01-18T05:51:35.437Z,2.63
2019-01-18T05:52:35.110Z,2.63
2019-01-18T05:54:39.138Z,2.66
2019-01-18T05:55:39.158Z,2.61
2019-01-18T05:57:43.194Z,2.65
2019-01-18T05:58:43.203Z,2.68
2019-01-18T06:00:47.223Z,2.65
2019-01-18T06:01:47.245Z,2.65
2019-01-18T06:03:40.189Z,2.66
2019-01-18T06:04:40.211Z,2.62
2019-01-18T06:06:44.244Z,2.65
2019-01-18T06:07:44.255Z,2.63
2019-01-18T06:09:48.277Z,2.65
2019-01-18T06:10:48.295Z,2.58
2019-01-18T06:12:52.339Z,2.56
2019-01-18T06:13:52.345Z,2.53
2019-01-18T06:15:56.381Z,2.53
2019-01-18T06:16:56.402Z,2.56
2019-01-18T06:19:00.429Z,2.43
2019-01-18T06:20:00.450Z,2.48
2019-01-18T06:22:04.471Z,2.47
2019-01-18T06:23:04.497Z,2.53
2019-01-18T06:25:09.037Z,2.50
2019-01-18T06:26:09.037Z,2.47
2019-01-18T06:27:09.123Z,2.43
2019-01-18T06:28:09.090Z,2.41
2019-01-18T06:29:09.122Z,2.43
2019-01-18T06:30:09.148Z,2.44
2019-01-18T06:31:09.172Z,2.43
2019-01-18T06:32:09.198Z,2.43
2019-01-18T06:33:09.227Z,2.33
2019-01-18T06:34:09.254Z,2.20
2019-01-18T06:35:09.283Z,2.12
2019-01-18T06:36:09.309Z,2.18
2019-01-18T06:37:09.335Z,2.19
2019-01-18T06:38:09.363Z,2.15
2019-01-18T06:39:09.417Z,2.12
2019-01-18T06:40:09.421Z,2.15
2019-01-18T06:41:09.446Z,2.14
2019-01-18T06:42:09.475Z,2.12
2019-01-18T06:43:09.541Z,2.08
2019-01-18T06:44:09.526Z,2.11
2019-01-18T06:45:09.554Z,2.09
2019-01-18T06:46:09.582Z,2.07
2019-01-18T06:47:09.608Z,2.09
2019-01-18T06:48:09.639Z,2.02
2019-01-18T06:49:09.662Z,2.07
2019-01-18T06:50:09.711Z,2.05
2019-01-18T06:51:09.717Z,2.08
2019-01-18T06:52:09.744Z,2.05
2019-01-18T06:53:09.774Z,2.02
2019-01-18T06:54:09.800Z,2.02
2019-01-18T06:55:09.826Z,2.09
2019-01-18T06:56:09.877Z,2.11
2019-01-18T06:57:09.884Z,2.12
2019-01-18T06:58:09.908Z,2.09
2019-01-18T06:59:09.935Z,2.04
2019-01-18T07:00:09.962Z,2.08
2019-01-18T07:01:09.990Z,2.09
2019-01-18T07:02:10.015Z,2.02
2019-01-18T07:03:10.043Z,2.01
2019-01-18T07:04:10.071Z,2.00
2019-01-18T07:05:10.102Z,2.05
2019-01-18T07:06:10.127Z,2.00
2019-01-18T07:07:10.152Z,1.90
2019-01-18T07:08:10.181Z,1.89
2019-01-18T07:09:10.207Z,1.92
2019-01-18T07:10:10.233Z,1.89
2019-01-18T07:11:10.260Z,1.98
2019-01-18T07:12:10.290Z,2.00
2019-01-18T07:13:10.315Z,1.93
2019-01-18T07:14:10.343Z,1.89
2019-01-18T07:15:10.370Z,1.88
2019-01-18T07:16:10.397Z,1.93
2019-01-18T07:17:10.423Z,2.00
2019-01-18T07:18:10.450Z,1.92
2019-01-18T07:19:10.480Z,2.02
2019-01-18T07:20:10.504Z,2.00
2019-01-18T07:21:10.533Z,2.02
2019-01-18T07:22:10.558Z,2.01
2019-01-18T07:23:10.586Z,1.98
2019-01-18T07:24:10.612Z,1.98
2019-01-18T07:25:10.641Z,2.08
2019-01-18T07:26:10.671Z,2.00
2019-01-18T07:27:10.693Z,1.90
2019-01-18T07:28:10.721Z,1.90
2019-01-18T07:29:10.748Z,1.90
2019-01-18T07:30:10.778Z,1.86
2019-01-18T07:31:15.107Z,1.93
2019-01-18T07:32:10.829Z,1.86
2019-01-18T07:33:10.856Z,1.83
2019-01-18T07:34:10.885Z,1.82
2019-01-18T07:35:10.911Z,1.86
2019-01-18T07:36:10.937Z,1.81
2019-01-18T07:37:10.964Z,1.83
2019-01-18T07:38:10.992Z,1.79
2019-01-18T07:39:11.017Z,1.85
2019-01-18T07:40:11.045Z,1.90
2019-01-18T07:41:11.075Z,1.89
2019-01-18T07:42:11.100Z,1.88
2019-01-18T07:43:11.126Z,1.93
2019-01-18T07:44:11.153Z,2.02
2019-01-18T07:45:11.181Z,2.05
2019-01-18T07:46:11.209Z,2.01
2019-01-18T07:47:11.234Z,2.18
2019-01-18T07:48:11.264Z,2.02
2019-01-18T07:49:11.288Z,2.08
2019-01-18T07:50:11.316Z,2.01
2019-01-18T07:51:11.344Z,2.15
2019-01-18T07:52:11.371Z,2.18
2019-01-18T07:53:11.398Z,2.08
2019-01-18T07:54:11.424Z,2.15
2019-01-18T07:55:11.450Z,2.15
2019-01-18T07:56:11.478Z,2.12
2019-01-18T07:57:11.507Z,2.08
2019-01-18T07:58:11.534Z,2.20
2019-01-18T07:59:11.587Z,2.09
2019-01-18T08:00:11.587Z,2.15
2019-01-18T08:01:11.614Z,2.23
2019-01-18T08:02:11.640Z,2.08
2019-01-18T08:03:11.673Z,2.18
2019-01-18T08:04:11.696Z,2.20
2019-01-18T08:05:11.722Z,2.14
2019-01-18T08:06:11.762Z,2.18
2019-01-18T08:07:11.776Z,1.98
2019-01-18T08:08:11.827Z,1.95
2019-01-18T08:09:11.829Z,1.92
2019-01-18T08:10:11.858Z,2.01
2019-01-18T08:11:11.883Z,2.05
2019-01-18T08:12:11.910Z,2.04
2019-01-18T08:13:11.940Z,1.98
2019-01-18T08:14:11.966Z,2.00
2019-01-18T08:15:11.991Z,2.09
2019-01-18T08:16:12.021Z,2.07
2019-01-18T08:17:12.045Z,2.01
2019-01-18T08:18:12.073Z,1.95
2019-01-18T08:19:12.101Z,1.98
2019-01-18T08:20:12.126Z,2.00
2019-01-18T08:21:12.155Z,2.05
2019-01-18T08:22:12.185Z,2.02
2019-01-18T08:23:19.371Z,2.02
2019-01-18T08:25:16.242Z,2.04
2019-01-18T08:26:16.268Z,2.05
2019-01-18T08:28:20.290Z,2.05
2019-01-18T08:29:20.310Z,1.95
2019-01-18T08:31:28.801Z,1.88
2019-01-18T08:32:24.391Z,1.98
2019-01-18T08:34:17.329Z,1.93
2019-01-18T08:35:17.356Z,1.89
2019-01-18T08:37:21.379Z,1.82
2019-01-18T08:38:21.403Z,1.85
2019-01-18T08:40:25.424Z,1.89
2019-01-18T08:41:25.445Z,1.88
2019-01-18T08:43:29.465Z,1.86
2019-01-18T08:44:29.488Z,1.89
2019-01-18T08:46:33.505Z,1.93
2019-01-18T08:47:33.533Z,1.93
2019-01-18T08:49:37.667Z,2.05
2019-01-18T08:50:37.690Z,1.98
2019-01-18T08:52:41.708Z,2.05
2019-01-18T08:53:41.728Z,2.04
2019-01-18T08:55:45.755Z,2.00
2019-01-18T08:56:45.782Z,2.05
2019-01-18T08:58:38.940Z,2.04
2019-01-18T08:59:38.945Z,2.04
2019-01-18T09:01:35.811Z,2.09
2019-01-18T09:02:32.217Z,2.02
2019-01-18T09:04:25.424Z,2.15
2019-01-18T09:05:25.380Z,2.15
2019-01-18T09:07:29.396Z,2.25
2019-01-18T09:08:29.419Z,2.30
2019-01-18T09:10:33.444Z,2.33
2019-01-18T09:11:33.469Z,2.27
2019-01-18T09:13:26.409Z,2.43
2019-01-18T09:14:26.430Z,2.43
2019-01-18T09:16:30.473Z,2.44
2019-01-18T09:17:30.492Z,2.53
2019-01-18T09:19:34.523Z,2.68
2019-01-18T09:20:34.542Z,2.65
2019-01-18T09:22:38.585Z,2.65
2019-01-18T09:23:38.590Z,2.58
2019-01-18T09:25:31.734Z,2.74
2019-01-18T09:26:31.760Z,2.83
2019-01-18T09:28:35.792Z,2.89
2019-01-18T09:29:35.811Z,3.08
2019-01-18T09:31:42.548Z,3.08
2019-01-18T09:32:39.900Z,3.17
2019-01-18T09:34:43.920Z,3.45
2019-01-18T09:35:43.946Z,3.45
2019-01-18T09:36:43.975Z,3.56
2019-01-18T09:37:44.002Z,3.46
2019-01-18T09:38:44.030Z,3.62
2019-01-18T09:39:45.435Z,3.62
2019-01-18T09:40:44.084Z,3.77
2019-01-18T09:41:44.240Z,3.77
2019-01-18T09:42:44.141Z,3.81
2019-01-18T09:43:44.170Z,3.86
2019-01-18T09:44:44.194Z,3.90
2019-01-18T09:45:44.224Z,3.86
2019-01-18T09:46:44.251Z,3.88
2019-01-18T09:47:44.279Z,3.89
2019-01-18T09:48:44.307Z,4.00
2019-01-18T09:49:44.337Z,4.00
2019-01-18T09:50:44.361Z,4.04
2019-01-18T09:51:44.389Z,3.93
2019-01-18T09:52:44.434Z,4.11
2019-01-18T09:53:44.445Z,4.13
2019-01-18T09:54:44.473Z,4.29
2019-01-18T09:55:44.502Z,4.32
2019-01-18T09:56:44.530Z,4.35
2019-01-18T09:57:44.557Z,4.44
2019-01-18T09:58:44.593Z,4.47
2019-01-18T09:59:44.613Z,4.51
2019-01-18T10:00:44.644Z,4.57
2019-01-18T10:01:49.286Z,4.59
2019-01-18T10:02:44.699Z,4.69
2019-01-18T10:03:44.731Z,4.77
2019-01-18T10:04:44.756Z,4.91
2019-01-18T10:05:44.787Z,4.96
2019-01-18T10:06:44.816Z,5.09
2019-01-18T10:07:44.850Z,5.23
2019-01-18T10:08:44.877Z,5.24
2019-01-18T10:09:44.905Z,5.30
2019-01-18T10:10:44.934Z,5.45
2019-01-18T10:11:44.966Z,5.60
2019-01-18T10:12:44.996Z,5.67
2019-01-18T10:13:45.030Z,5.83
2019-01-18T10:14:45.062Z,5.96
2019-01-18T10:15:45.092Z,6.08
2019-01-18T10:16:45.132Z,6.28
2019-01-18T10:17:45.156Z,6.50
2019-01-18T10:18:45.190Z,6.72
2019-01-18T10:19:45.223Z,6.91
2019-01-18T10:20:45.256Z,7.00
2019-01-18T10:21:46.617Z,7.15
2019-01-18T10:22:45.326Z,7.36
2019-01-18T10:23:45.360Z,7.77
2019-01-18T10:24:45.394Z,8.13
2019-01-18T10:25:45.430Z,8.47
2019-01-18T10:26:45.469Z,8.96
2019-01-18T10:27:45.507Z,9.68
2019-01-18T10:28:45.538Z,10.65
2019-01-18T10:29:45.573Z,11.78
2019-01-18T10:30:45.609Z,12.96
2019-01-18T10:31:45.647Z,14.29
2019-01-18T10:32:45.683Z,15.55
2019-01-18T10:33:45.724Z,16.52
2019-01-18T10:34:45.761Z,17.30
2019-01-18T10:35:45.795Z,17.95
2019-01-18T10:36:45.835Z,18.75
2019-01-18T10:37:45.873Z,19.16
2019-01-18T10:38:45.929Z,19.38
2019-01-18T10:39:45.948Z,19.86
2019-01-18T10:40:45.987Z,20.46
2019-01-18T10:41:46.030Z,21.28
2019-01-18T10:42:46.065Z,21.82
2019-01-18T10:43:46.105Z,22.26
2019-01-18T10:44:46.170Z,22.69
2019-01-18T10:45:46.183Z,23.18
2019-01-18T10:46:46.222Z,23.79
2019-01-18T10:47:46.265Z,24.29
2019-01-18T10:48:46.305Z,24.89
2019-01-18T10:49:46.340Z,25.31
2019-01-18T10:50:46.387Z,25.67
2019-01-18T10:51:46.425Z,25.91
2019-01-18T10:52:46.463Z,26.04
2019-01-18T10:53:46.501Z,26.17
2019-01-18T10:54:46.544Z,26.24
2019-01-18T10:55:46.600Z,26.53
2019-01-18T10:56:46.624Z,26.68
2019-01-18T10:57:46.665Z,26.38
2019-01-18T10:58:46.705Z,26.56
2019-01-18T10:59:46.745Z,26.98
2019-01-18T11:00:46.793Z,27.43
2019-01-18T11:01:46.828Z,28.03
2019-01-18T11:02:46.872Z,28.39
2019-01-18T11:03:46.912Z,28.65
2019-01-18T11:04:46.951Z,28.77
2019-01-18T11:05:46.994Z,28.94
2019-01-18T11:06:47.034Z,29.03
2019-01-18T11:07:47.077Z,29.23
2019-01-18T11:08:47.119Z,29.29
2019-01-18T11:09:47.164Z,28.77
2019-01-18T11:10:47.201Z,28.73
2019-01-18T11:11:47.245Z,28.82
2019-01-18T11:12:47.283Z,28.95
2019-01-18T11:13:47.326Z,29.29
2019-01-18T11:14:47.371Z,29.17
2019-01-18T11:15:47.411Z,29.14
2019-01-18T11:16:47.451Z,29.39
2019-01-18T11:17:47.492Z,29.64
2019-01-18T11:18:47.534Z,30.10
2019-01-18T11:19:47.580Z,30.44
2019-01-18T11:20:47.622Z,30.10
2019-01-18T11:21:47.661Z,30.36
2019-01-18T11:22:47.702Z,29.88
2019-01-18T11:23:47.744Z,29.82
2019-01-18T11:24:47.787Z,29.88
2019-01-18T11:25:47.830Z,29.66
2019-01-18T11:26:47.878Z,30.00
2019-01-18T11:27:47.913Z,30.38
2019-01-18T11:28:47.956Z,30.67
2019-01-18T11:29:48.000Z,30.91
2019-01-18T11:30:48.041Z,30.93
2019-01-18T11:31:48.088Z,30.53
2019-01-18T11:32:48.126Z,30.51
2019-01-18T11:33:48.170Z,30.23
2019-01-18T11:34:48.217Z,30.28
2019-01-18T11:35:48.256Z,30.30
2019-01-18T11:36:48.299Z,30.56
2019-01-18T11:37:48.342Z,30.75
2019-01-18T11:38:48.385Z,29.51
2019-01-18T11:39:48.430Z,28.79
2019-01-18T11:40:48.470Z,28.61
2019-01-18T11:41:48.511Z,27.99
2019-01-18T11:42:48.551Z,27.99
2019-01-18T11:43:48.594Z,27.58
2019-01-18T11:44:48.637Z,27.63
2019-01-18T11:45:48.679Z,28.18
2019-01-18T11:46:48.721Z,28.45
2019-01-18T11:47:48.762Z,28.15
2019-01-18T11:48:50.383Z,27.91
2019-01-18T11:49:48.850Z,27.77
2019-01-18T11:50:48.886Z,27.65
2019-01-18T11:51:48.928Z,27.59
2019-01-18T11:52:48.970Z,27.40
2019-01-18T11:53:49.012Z,26.87
2019-01-18T11:54:49.052Z,27.24
2019-01-18T11:55:49.089Z,27.84
2019-01-18T11:56:49.132Z,28.06
2019-01-18T11:57:49.171Z,28.54
2019-01-18T11:58:49.208Z,28.85
2019-01-18T11:59:50.573Z,29.32
2019-01-18T12:00:49.288Z,28.79
2019-01-18T12:01:49.325Z,28.61
2019-01-18T12:02:49.364Z,28.77
2019-01-18T12:03:49.404Z,28.76
2019-01-18T12:04:49.440Z,28.85
2019-01-18T12:05:49.482Z,29.10
2019-01-18T12:06:49.517Z,29.12
2019-01-18T12:07:49.561Z,28.79
2019-01-18T12:08:49.592Z,28.95
2019-01-18T12:09:49.628Z,29.29
2019-01-18T12:10:49.666Z,29.63
2019-01-18T12:11:49.703Z,29.42
2019-01-18T12:12:49.743Z,28.77
2019-01-18T12:13:49.791Z,27.78
2019-01-18T12:14:49.813Z,27.58
2019-01-18T12:15:49.858Z,27.72
2019-01-18T12:16:49.892Z,27.35
2019-01-18T12:17:49.923Z,27.06
2019-01-18T12:18:49.961Z,27.02
2019-01-18T12:19:50.002Z,26.66
2019-01-18T12:20:50.037Z,26.97
2019-01-18T12:21:50.072Z,27.11
2019-01-18T12:22:50.112Z,27.13
2019-01-18T12:23:50.147Z,27.09
2019-01-18T12:24:50.187Z,26.90
2019-01-18T12:25:50.223Z,26.83
2019-01-18T12:26:50.261Z,26.47
2019-01-18T12:27:50.298Z,26.19
2019-01-18T12:28:50.337Z,26.21
2019-01-18T12:29:50.377Z,26.20
2019-01-18T12:30:50.409Z,25.90
2019-01-18T12:31:50.448Z,25.67
2019-01-18T12:32:50.487Z,25.57
2019-01-18T12:33:50.524Z,24.24
2019-01-18T12:34:50.562Z,23.67
2019-01-18T12:35:50.601Z,23.21
2019-01-18T12:36:51.889Z,23.15
2019-01-18T12:37:50.684Z,23.04
2019-01-18T12:38:50.717Z,22.94
2019-01-18T12:39:50.757Z,23.23
2019-01-18T12:40:50.795Z,23.39
2019-01-18T12:41:50.834Z,23.37
2019-01-18T12:42:50.871Z,23.63
2019-01-18T12:43:50.911Z,23.90
2019-01-18T12:44:50.952Z,24.16
2019-01-18T12:45:50.987Z,24.60
2019-01-18T12:46:51.027Z,24.49
2019-01-18T12:47:51.065Z,25.02
2019-01-18T12:48:51.107Z,25.53
2019-01-18T12:49:51.145Z,25.76
2019-01-18T12:50:51.184Z,25.94
2019-01-18T12:51:51.224Z,25.64
2019-01-18T12:52:51.290Z,25.24
2019-01-18T12:53:51.379Z,25.39
2019-01-18T12:54:51.341Z,25.82
2019-01-18T12:55:51.382Z,26.01
2019-01-18T12:56:51.430Z,26.44
2019-01-18T12:57:51.785Z,26.90
2019-01-18T12:58:51.502Z,25.98
2019-01-18T12:59:51.542Z,26.11
2019-01-18T13:00:51.584Z,26.53
2019-01-18T13:01:51.625Z,26.87
2019-01-18T13:02:51.687Z,27.31
2019-01-18T13:03:51.714Z,27.55
2019-01-18T13:04:51.750Z,27.76
2019-01-18T13:05:51.785Z,27.83
2019-01-18T13:06:51.825Z,27.99
2019-01-18T13:07:51.867Z,27.68
2019-01-18T13:08:51.903Z,27.46
2019-01-18T13:09:51.945Z,27.34
2019-01-18T13:10:51.985Z,26.96
2019-01-18T13:11:52.026Z,26.83
2019-01-18T13:12:52.068Z,25.76
2019-01-18T13:13:52.109Z,25.44
2019-01-18T13:14:52.146Z,25.22
2019-01-18T13:15:52.186Z,24.89
2019-01-18T13:16:52.227Z,24.87
2019-01-18T13:17:52.268Z,24.60
2019-01-18T13:18:52.308Z,24.84
2019-01-18T13:19:52.349Z,25.30
2019-01-18T13:20:52.398Z,25.82
2019-01-18T13:21:52.434Z,26.08
2019-01-18T13:22:52.469Z,26.19
2019-01-18T13:23:52.513Z,25.98
2019-01-18T13:24:52.553Z,25.86
2019-01-18T13:25:52.594Z,24.44
2019-01-18T13:26:52.632Z,23.42
2019-01-18T13:27:52.673Z,22.70
2019-01-18T13:28:52.713Z,22.59
2019-01-18T13:29:52.753Z,21.42
2019-01-18T13:30:52.800Z,21.06
2019-01-18T13:31:52.833Z,20.60
2019-01-18T13:32:52.872Z,20.16
2019-01-18T13:33:52.918Z,19.05
2019-01-18T13:34:52.950Z,19.31
2019-01-18T13:35:52.992Z,19.40
2019-01-18T13:36:53.038Z,19.55
2019-01-18T13:37:53.069Z,18.94
2019-01-18T13:38:53.106Z,18.20
2019-01-18T13:39:53.145Z,17.28
2019-01-18T13:40:53.187Z,16.41
2019-01-18T13:41:53.221Z,15.20
2019-01-18T13:42:53.258Z,14.64
2019-01-18T13:43:53.295Z,14.31
2019-01-18T13:44:53.335Z,13.99
2019-01-18T13:45:53.373Z,13.28
2019-01-18T13:46:53.417Z,12.63
2019-01-18T13:47:53.447Z,12.13
2019-01-18T13:48:53.486Z,12.13
2019-01-18T13:49:53.519Z,12.21
2019-01-18T13:50:53.553Z,12.30
2019-01-18T13:51:53.591Z,12.00
2019-01-18T13:52:53.627Z,11.85
2019-01-18T13:53:53.665Z,11.57
2019-01-18T13:54:53.698Z,11.57
2019-01-18T13:55:53.735Z,11.46
2019-01-18T13:56:53.770Z,11.45
2019-01-18T13:57:53.805Z,11.38
2019-01-18T13:58:53.843Z,11.45
2019-01-18T13:59:53.877Z,11.49
2019-01-18T14:00:53.911Z,11.49
2019-01-18T14:01:53.944Z,11.44
2019-01-18T14:02:53.977Z,11.35
2019-01-18T14:03:54.012Z,11.39
2019-01-18T14:04:54.058Z,11.42
2019-01-18T14:05:54.081Z,11.33
2019-01-18T14:06:54.127Z,11.27
2019-01-18T14:07:54.149Z,11.49
2019-01-18T14:08:54.184Z,11.78
2019-01-18T14:09:54.217Z,12.08
2019-01-18T14:10:54.261Z,12.41
2019-01-18T14:11:55.872Z,12.67
2019-01-18T14:12:54.318Z,12.70
2019-01-18T14:13:54.351Z,12.76
2019-01-18T14:14:54.386Z,12.61
2019-01-18T14:15:54.421Z,12.59
2019-01-18T14:16:54.450Z,12.49
2019-01-18T14:17:54.485Z,12.51
2019-01-18T14:18:54.521Z,12.62
2019-01-18T14:19:54.553Z,12.59
2019-01-18T14:20:54.583Z,12.76
2019-01-18T14:21:54.614Z,12.79
2019-01-18T14:23:02.826Z,13.01
2019-01-18T14:24:59.149Z,12.44
2019-01-18T14:25:58.710Z,12.00
2019-01-18T14:28:02.743Z,11.42
2019-01-18T14:29:02.773Z,11.41
2019-01-18T14:31:06.805Z,11.42
2019-01-18T14:32:06.831Z,11.60
2019-01-18T14:33:59.787Z,12.25
2019-01-18T14:34:59.815Z,12.54
2019-01-18T14:37:03.866Z,12.74
2019-01-18T14:38:03.878Z,13.01
2019-01-18T14:40:07.922Z,12.94
2019-01-18T14:41:07.947Z,12.98
2019-01-18T14:43:12.003Z,12.40
2019-01-18T14:44:12.009Z,11.88
2019-01-18T14:46:16.510Z,11.30
2019-01-18T14:47:16.067Z,11.21
2019-01-18T14:49:20.101Z,10.76
2019-01-18T14:50:20.130Z,10.66
2019-01-18T14:52:24.178Z,10.20
2019-01-18T14:53:24.193Z,9.93
2019-01-18T14:55:28.219Z,9.27
2019-01-18T14:56:28.246Z,9.08
2019-01-18T14:58:32.301Z,8.63
2019-01-18T14:59:32.306Z,8.36
2019-01-18T15:01:36.335Z,7.92
2019-01-18T15:02:36.360Z,7.70
2019-01-18T15:04:29.309Z,7.04
2019-01-18T15:05:29.335Z,6.82